sensor_id;sensor_type;location;lat;lon;timestamp;temperature;humidity
67054;SHT31;53960;51.826;5.850;2022-11-12T00:02:14;7.34;94.54
67054;SHT31;53960;51.826;5.850;2022-11-12T00:04:39;7.37;94.61
67054;SHT31;53960;51.826;5.850;2022-11-12T00:07:04;7.32;94.91
67054;SHT31;53960;51.826;5.850;2022-11-12T00:09:29;7.34;94.87
67054;SHT31;53960;51.826;5.850;2022-11-12T00:11:55;7.32;94.84
67054;SHT31;53960;51.826;5.850;2022-11-12T00:14:20;7.34;94.90
67054;SHT31;53960;51.826;5.850;2022-11-12T00:16:45;7.30;94.79
67054;SHT31;53960;51.826;5.850;2022-11-12T00:19:11;7.28;94.51
67054;SHT31;53960;51.826;5.850;2022-11-12T00:21:36;7.21;94.69
67054;SHT31;53960;51.826;5.850;2022-11-12T00:24:01;7.21;94.58
67054;SHT31;53960;51.826;5.850;2022-11-12T00:26:27;7.16;94.43
67054;SHT31;53960;51.826;5.850;2022-11-12T00:28:52;7.14;94.28
67054;SHT31;53960;51.826;5.850;2022-11-12T00:31:17;7.10;94.32
67054;SHT31;53960;51.826;5.850;2022-11-12T00:33:43;7.08;94.26
67054;SHT31;53960;51.826;5.850;2022-11-12T00:36:09;7.06;94.49
67054;SHT31;53960;51.826;5.850;2022-11-12T00:38:35;7.03;94.32
67054;SHT31;53960;51.826;5.850;2022-11-12T00:41:00;6.96;94.22
67054;SHT31;53960;51.826;5.850;2022-11-12T00:43:26;6.93;94.16
67054;SHT31;53960;51.826;5.850;2022-11-12T00:45:51;6.87;93.99
67054;SHT31;53960;51.826;5.850;2022-11-12T00:48:17;6.83;93.97
67054;SHT31;53960;51.826;5.850;2022-11-12T00:50:42;6.83;94.07
67054;SHT31;53960;51.826;5.850;2022-11-12T00:53:08;6.80;93.97
67054;SHT31;53960;51.826;5.850;2022-11-12T00:55:33;6.76;93.88
67054;SHT31;53960;51.826;5.850;2022-11-12T00:57:58;6.75;94.09
67054;SHT31;53960;51.826;5.850;2022-11-12T01:00:24;6.76;94.42
67054;SHT31;53960;51.826;5.850;2022-11-12T01:02:50;6.79;94.44
67054;SHT31;53960;51.826;5.850;2022-11-12T01:05:15;6.77;94.19
67054;SHT31;53960;51.826;5.850;2022-11-12T01:07:41;6.76;94.04
67054;SHT31;53960;51.826;5.850;2022-11-12T01:10:08;6.72;93.81
67054;SHT31;53960;51.826;5.850;2022-11-12T01:12:34;6.68;93.72
67054;SHT31;53960;51.826;5.850;2022-11-12T01:14:59;6.65;93.74
67054;SHT31;53960;51.826;5.850;2022-11-12T01:17:25;6.61;93.93
67054;SHT31;53960;51.826;5.850;2022-11-12T01:19:51;6.61;94.22
67054;SHT31;53960;51.826;5.850;2022-11-12T01:22:16;6.58;94.15
67054;SHT31;53960;51.826;5.850;2022-11-12T01:24:41;6.55;94.05
67054;SHT31;53960;51.826;5.850;2022-11-12T01:27:07;6.52;94.19
67054;SHT31;53960;51.826;5.850;2022-11-12T01:29:32;6.50;93.86
67054;SHT31;53960;51.826;5.850;2022-11-12T01:31:58;6.46;93.65
67054;SHT31;53960;51.826;5.850;2022-11-12T01:34:23;6.41;93.56
67054;SHT31;53960;51.826;5.850;2022-11-12T01:36:48;6.37;93.58
67054;SHT31;53960;51.826;5.850;2022-11-12T01:39:14;6.34;93.38
67054;SHT31;53960;51.826;5.850;2022-11-12T01:41:40;6.29;93.38
67054;SHT31;53960;51.826;5.850;2022-11-12T01:44:14;6.29;93.22
67054;SHT31;53960;51.826;5.850;2022-11-12T01:47:10;6.22;93.24
67054;SHT31;53960;51.826;5.850;2022-11-12T01:49:39;6.20;93.11
67054;SHT31;53960;51.826;5.850;2022-11-12T01:52:40;6.17;93.41
67054;SHT31;53960;51.826;5.850;2022-11-12T01:55:10;6.13;93.58
67054;SHT31;53960;51.826;5.850;2022-11-12T01:57:40;6.11;93.44
67054;SHT31;53960;51.826;5.850;2022-11-12T02:00:10;6.07;93.29
67054;SHT31;53960;51.826;5.850;2022-11-12T02:02:36;6.10;93.38
67054;SHT31;53960;51.826;5.850;2022-11-12T02:05:05;6.06;93.26
67054;SHT31;53960;51.826;5.850;2022-11-12T02:07:32;6.00;93.11
67054;SHT31;53960;51.826;5.850;2022-11-12T02:10:01;6.01;93.12
67054;SHT31;53960;51.826;5.850;2022-11-12T02:12:27;5.97;93.17
67054;SHT31;53960;51.826;5.850;2022-11-12T02:15:11;5.98;93.09
67054;SHT31;53960;51.826;5.850;2022-11-12T02:17:36;5.97;93.33
67054;SHT31;53960;51.826;5.850;2022-11-12T02:20:02;5.96;93.40
67054;SHT31;53960;51.826;5.850;2022-11-12T02:22:28;5.94;93.40
67054;SHT31;53960;51.826;5.850;2022-11-12T02:24:53;5.96;93.20
67054;SHT31;53960;51.826;5.850;2022-11-12T02:27:18;5.96;93.23
67054;SHT31;53960;51.826;5.850;2022-11-12T02:29:44;5.93;93.37
67054;SHT31;53960;51.826;5.850;2022-11-12T02:32:12;5.87;93.21
67054;SHT31;53960;51.826;5.850;2022-11-12T02:34:38;5.87;93.05
67054;SHT31;53960;51.826;5.850;2022-11-12T02:37:04;5.85;93.16
67054;SHT31;53960;51.826;5.850;2022-11-12T02:39:29;5.81;93.19
67054;SHT31;53960;51.826;5.850;2022-11-12T02:41:54;5.81;93.33
67054;SHT31;53960;51.826;5.850;2022-11-12T02:44:20;5.81;93.20
67054;SHT31;53960;51.826;5.850;2022-11-12T02:46:45;5.81;93.25
67054;SHT31;53960;51.826;5.850;2022-11-12T02:49:10;5.83;93.35
67054;SHT31;53960;51.826;5.850;2022-11-12T02:51:36;5.81;93.14
67054;SHT31;53960;51.826;5.850;2022-11-12T02:54:01;5.80;93.20
67054;SHT31;53960;51.826;5.850;2022-11-12T02:56:26;5.77;93.02
67054;SHT31;53960;51.826;5.850;2022-11-12T02:58:52;5.79;93.19
67054;SHT31;53960;51.826;5.850;2022-11-12T03:01:17;5.76;92.98
67054;SHT31;53960;51.826;5.850;2022-11-12T03:03:42;5.74;92.85
67054;SHT31;53960;51.826;5.850;2022-11-12T03:06:08;5.73;92.90
67054;SHT31;53960;51.826;5.850;2022-11-12T03:08:33;5.70;92.88
67054;SHT31;53960;51.826;5.850;2022-11-12T03:11:05;5.69;93.01
67054;SHT31;53960;51.826;5.850;2022-11-12T03:13:30;5.65;92.84
67054;SHT31;53960;51.826;5.850;2022-11-12T03:16:02;5.65;92.85
67054;SHT31;53960;51.826;5.850;2022-11-12T03:18:27;5.66;92.93
67054;SHT31;53960;51.826;5.850;2022-11-12T03:20:52;5.65;92.83
67054;SHT31;53960;51.826;5.850;2022-11-12T03:23:18;5.62;92.84
67054;SHT31;53960;51.826;5.850;2022-11-12T03:25:43;5.63;92.97
67054;SHT31;53960;51.826;5.850;2022-11-12T03:28:11;5.65;92.85
67054;SHT31;53960;51.826;5.850;2022-11-12T03:30:38;5.65;92.93
67054;SHT31;53960;51.826;5.850;2022-11-12T03:33:05;5.59;92.90
67054;SHT31;53960;51.826;5.850;2022-11-12T03:35:31;5.59;93.33
67054;SHT31;53960;51.826;5.850;2022-11-12T03:37:57;5.56;93.21
67054;SHT31;53960;51.826;5.850;2022-11-12T03:40:23;5.59;93.19
67054;SHT31;53960;51.826;5.850;2022-11-12T03:42:49;5.55;93.15
67054;SHT31;53960;51.826;5.850;2022-11-12T03:45:16;5.53;93.20
67054;SHT31;53960;51.826;5.850;2022-11-12T03:47:43;5.52;93.26
67054;SHT31;53960;51.826;5.850;2022-11-12T03:50:08;5.52;93.15
67054;SHT31;53960;51.826;5.850;2022-11-12T03:52:34;5.50;93.11
67054;SHT31;53960;51.826;5.850;2022-11-12T03:55:00;5.48;93.25
67054;SHT31;53960;51.826;5.850;2022-11-12T03:57:25;5.46;93.08
67054;SHT31;53960;51.826;5.850;2022-11-12T03:59:51;5.49;93.19
67054;SHT31;53960;51.826;5.850;2022-11-12T04:02:16;5.50;93.01
67054;SHT31;53960;51.826;5.850;2022-11-12T04:04:41;5.48;93.08
67054;SHT31;53960;51.826;5.850;2022-11-12T04:07:25;5.48;92.94
67054;SHT31;53960;51.826;5.850;2022-11-12T04:10:09;5.46;93.16
67054;SHT31;53960;51.826;5.850;2022-11-12T04:12:34;5.43;93.02
67054;SHT31;53960;51.826;5.850;2022-11-12T04:15:18;5.45;93.04
67054;SHT31;53960;51.826;5.850;2022-11-12T04:17:43;5.45;93.01
67054;SHT31;53960;51.826;5.850;2022-11-12T04:20:27;5.40;92.82
67054;SHT31;53960;51.826;5.850;2022-11-12T04:23:31;5.35;92.97
67054;SHT31;53960;51.826;5.850;2022-11-12T04:25:56;5.35;92.97
67054;SHT31;53960;51.826;5.850;2022-11-12T04:28:40;5.31;93.00
67054;SHT31;53960;51.826;5.850;2022-11-12T04:31:25;5.32;93.03
67054;SHT31;53960;51.826;5.850;2022-11-12T04:33:50;5.34;93.09
67054;SHT31;53960;51.826;5.850;2022-11-12T04:36:16;5.32;93.13
67054;SHT31;53960;51.826;5.850;2022-11-12T04:38:41;5.28;92.91
67054;SHT31;53960;51.826;5.850;2022-11-12T04:41:07;5.25;92.93
67054;SHT31;53960;51.826;5.850;2022-11-12T04:43:50;5.22;93.00
67054;SHT31;53960;51.826;5.850;2022-11-12T04:46:34;5.17;93.02
67054;SHT31;53960;51.826;5.850;2022-11-12T04:49:00;5.18;93.22
67054;SHT31;53960;51.826;5.850;2022-11-12T04:51:25;5.19;93.04
67054;SHT31;53960;51.826;5.850;2022-11-12T04:54:09;5.18;92.95
67054;SHT31;53960;51.826;5.850;2022-11-12T04:56:34;5.17;92.96
67054;SHT31;53960;51.826;5.850;2022-11-12T04:58:59;5.14;92.92
67054;SHT31;53960;51.826;5.850;2022-11-12T05:01:24;5.11;92.82
67054;SHT31;53960;51.826;5.850;2022-11-12T05:03:50;5.09;92.84
67054;SHT31;53960;51.826;5.850;2022-11-12T05:06:15;5.08;92.82
67054;SHT31;53960;51.826;5.850;2022-11-12T05:09:00;5.04;92.81
67054;SHT31;53960;51.826;5.850;2022-11-12T05:11:26;5.02;92.81
67054;SHT31;53960;51.826;5.850;2022-11-12T05:13:51;5.01;92.61
67054;SHT31;53960;51.826;5.850;2022-11-12T05:16:16;4.97;92.71
67054;SHT31;53960;51.826;5.850;2022-11-12T05:18:42;4.94;92.60
67054;SHT31;53960;51.826;5.850;2022-11-12T05:21:07;4.92;92.63
67054;SHT31;53960;51.826;5.850;2022-11-12T05:23:50;4.87;92.66
67054;SHT31;53960;51.826;5.850;2022-11-12T05:26:16;4.87;92.61
67054;SHT31;53960;51.826;5.850;2022-11-12T05:28:41;4.84;92.52
67054;SHT31;53960;51.826;5.850;2022-11-12T05:31:06;4.85;92.52
67054;SHT31;53960;51.826;5.850;2022-11-12T05:33:32;4.84;92.51
67054;SHT31;53960;51.826;5.850;2022-11-12T05:35:57;4.80;92.57
67054;SHT31;53960;51.826;5.850;2022-11-12T05:38:22;4.80;92.57
67054;SHT31;53960;51.826;5.850;2022-11-12T05:40:47;4.76;92.47
67054;SHT31;53960;51.826;5.850;2022-11-12T05:43:13;4.73;92.56
67054;SHT31;53960;51.826;5.850;2022-11-12T05:45:41;4.70;92.53
67054;SHT31;53960;51.826;5.850;2022-11-12T05:48:07;4.67;92.54
67054;SHT31;53960;51.826;5.850;2022-11-12T05:50:32;4.66;92.44
67054;SHT31;53960;51.826;5.850;2022-11-12T05:52:57;4.67;92.74
67054;SHT31;53960;51.826;5.850;2022-11-12T05:55:22;4.66;92.80
67054;SHT31;53960;51.826;5.850;2022-11-12T05:57:48;4.63;92.73
67054;SHT31;53960;51.826;5.850;2022-11-12T06:00:13;4.63;92.51
67054;SHT31;53960;51.826;5.850;2022-11-12T06:02:39;4.64;92.56
67054;SHT31;53960;51.826;5.850;2022-11-12T06:05:04;4.63;92.49
67054;SHT31;53960;51.826;5.850;2022-11-12T06:07:30;4.61;92.37
67054;SHT31;53960;51.826;5.850;2022-11-12T06:09:55;4.59;92.49
67054;SHT31;53960;51.826;5.850;2022-11-12T06:12:20;4.60;92.47
67054;SHT31;53960;51.826;5.850;2022-11-12T06:14:45;4.60;92.31
67054;SHT31;53960;51.826;5.850;2022-11-12T06:17:11;4.54;92.33
67054;SHT31;53960;51.826;5.850;2022-11-12T06:19:36;4.56;92.46
67054;SHT31;53960;51.826;5.850;2022-11-12T06:22:01;4.56;92.58
67054;SHT31;53960;51.826;5.850;2022-11-12T06:24:27;4.54;92.50
67054;SHT31;53960;51.826;5.850;2022-11-12T06:26:54;4.50;92.77
67054;SHT31;53960;51.826;5.850;2022-11-12T06:29:19;4.52;92.59
67054;SHT31;53960;51.826;5.850;2022-11-12T06:31:44;4.50;92.65
67054;SHT31;53960;51.826;5.850;2022-11-12T06:34:10;4.52;92.50
67054;SHT31;53960;51.826;5.850;2022-11-12T06:36:36;4.50;92.51
67054;SHT31;53960;51.826;5.850;2022-11-12T06:39:02;4.47;92.55
67054;SHT31;53960;51.826;5.850;2022-11-12T06:41:27;4.50;92.57
67054;SHT31;53960;51.826;5.850;2022-11-12T06:43:52;4.50;92.38
67054;SHT31;53960;51.826;5.850;2022-11-12T06:46:18;4.50;92.28
67054;SHT31;53960;51.826;5.850;2022-11-12T06:48:43;4.47;92.41
67054;SHT31;53960;51.826;5.850;2022-11-12T06:51:11;4.46;92.34
67054;SHT31;53960;51.826;5.850;2022-11-12T06:53:39;4.45;92.39
67054;SHT31;53960;51.826;5.850;2022-11-12T06:56:06;4.43;92.39
67054;SHT31;53960;51.826;5.850;2022-11-12T06:58:31;4.40;92.39
67054;SHT31;53960;51.826;5.850;2022-11-12T07:00:57;4.39;92.45
67054;SHT31;53960;51.826;5.850;2022-11-12T07:03:22;4.39;92.47
67054;SHT31;53960;51.826;5.850;2022-11-12T07:05:47;4.42;92.56
67054;SHT31;53960;51.826;5.850;2022-11-12T07:08:13;4.45;92.49
67054;SHT31;53960;51.826;5.850;2022-11-12T07:10:38;4.43;92.45
67054;SHT31;53960;51.826;5.850;2022-11-12T07:13:03;4.43;92.41
67054;SHT31;53960;51.826;5.850;2022-11-12T07:15:28;4.46;92.45
67054;SHT31;53960;51.826;5.850;2022-11-12T07:17:54;4.49;92.48
67054;SHT31;53960;51.826;5.850;2022-11-12T07:20:19;4.50;92.53
67054;SHT31;53960;51.826;5.850;2022-11-12T07:22:44;4.53;92.63
67054;SHT31;53960;51.826;5.850;2022-11-12T07:25:10;4.54;92.64
67054;SHT31;53960;51.826;5.850;2022-11-12T07:27:35;4.57;92.62
67054;SHT31;53960;51.826;5.850;2022-11-12T07:30:00;4.60;92.72
67054;SHT31;53960;51.826;5.850;2022-11-12T07:32:26;4.61;92.88
67054;SHT31;53960;51.826;5.850;2022-11-12T07:34:51;4.66;92.97
67054;SHT31;53960;51.826;5.850;2022-11-12T07:37:16;4.68;92.88
67054;SHT31;53960;51.826;5.850;2022-11-12T07:39:42;4.74;92.80
67054;SHT31;53960;51.826;5.850;2022-11-12T07:42:07;4.77;92.68
67054;SHT31;53960;51.826;5.850;2022-11-12T07:44:32;4.84;92.56
67054;SHT31;53960;51.826;5.850;2022-11-12T07:46:57;4.84;92.68
67054;SHT31;53960;51.826;5.850;2022-11-12T07:49:23;4.87;92.86
67054;SHT31;53960;51.826;5.850;2022-11-12T07:51:48;4.90;92.84
67054;SHT31;53960;51.826;5.850;2022-11-12T07:54:13;4.91;93.04
67054;SHT31;53960;51.826;5.850;2022-11-12T07:56:39;4.95;93.03
67054;SHT31;53960;51.826;5.850;2022-11-12T07:59:04;4.97;93.09
67054;SHT31;53960;51.826;5.850;2022-11-12T08:03:59;5.07;93.24
67054;SHT31;53960;51.826;5.850;2022-11-12T08:06:25;5.12;93.39
67054;SHT31;53960;51.826;5.850;2022-11-12T08:08:54;5.22;93.64
67054;SHT31;53960;51.826;5.850;2022-11-12T08:11:20;5.36;93.73
67054;SHT31;53960;51.826;5.850;2022-11-12T08:13:46;5.45;93.82
67054;SHT31;53960;51.826;5.850;2022-11-12T08:16:11;5.50;93.52
67054;SHT31;53960;51.826;5.850;2022-11-12T08:18:37;5.60;93.76
67054;SHT31;53960;51.826;5.850;2022-11-12T08:21:05;5.67;93.80
67054;SHT31;53960;51.826;5.850;2022-11-12T08:23:31;5.70;93.63
67054;SHT31;53960;51.826;5.850;2022-11-12T08:26:05;5.76;93.71
67054;SHT31;53960;51.826;5.850;2022-11-12T08:28:33;5.94;94.32
67054;SHT31;53960;51.826;5.850;2022-11-12T08:31:12;6.04;94.00
67054;SHT31;53960;51.826;5.850;2022-11-12T08:33:38;6.17;94.26
67054;SHT31;53960;51.826;5.850;2022-11-12T08:36:05;6.24;93.89
67054;SHT31;53960;51.826;5.850;2022-11-12T08:38:31;6.29;93.67
67054;SHT31;53960;51.826;5.850;2022-11-12T08:41:00;6.34;93.60
67054;SHT31;53960;51.826;5.850;2022-11-12T08:43:26;6.42;93.36
67054;SHT31;53960;51.826;5.850;2022-11-12T08:45:51;6.48;93.28
67054;SHT31;53960;51.826;5.850;2022-11-12T08:48:16;6.55;93.19
67054;SHT31;53960;51.826;5.850;2022-11-12T08:50:42;6.56;92.94
67054;SHT31;53960;51.826;5.850;2022-11-12T08:53:09;6.56;92.90
67054;SHT31;53960;51.826;5.850;2022-11-12T08:55:35;6.65;92.86
67054;SHT31;53960;51.826;5.850;2022-11-12T08:58:00;6.73;92.58
67054;SHT31;53960;51.826;5.850;2022-11-12T09:00:30;6.79;92.52
67054;SHT31;53960;51.826;5.850;2022-11-12T09:02:59;6.86;92.48
67054;SHT31;53960;51.826;5.850;2022-11-12T09:05:24;6.95;92.40
67054;SHT31;53960;51.826;5.850;2022-11-12T09:08:01;7.00;92.13
67054;SHT31;53960;51.826;5.850;2022-11-12T09:10:27;7.03;91.95
67054;SHT31;53960;51.826;5.850;2022-11-12T09:12:53;7.11;91.78
67054;SHT31;53960;51.826;5.850;2022-11-12T09:15:19;7.20;91.85
67054;SHT31;53960;51.826;5.850;2022-11-12T09:17:45;7.24;91.39
67054;SHT31;53960;51.826;5.850;2022-11-12T09:20:11;7.26;91.29
67054;SHT31;53960;51.826;5.850;2022-11-12T09:22:37;7.34;91.46
67054;SHT31;53960;51.826;5.850;2022-11-12T09:25:02;7.45;91.54
67054;SHT31;53960;51.826;5.850;2022-11-12T09:27:28;7.61;91.01
67054;SHT31;53960;51.826;5.850;2022-11-12T09:29:53;7.74;90.79
67054;SHT31;53960;51.826;5.850;2022-11-12T09:32:20;7.86;90.64
67054;SHT31;53960;51.826;5.850;2022-11-12T09:34:45;7.95;90.37
67054;SHT31;53960;51.826;5.850;2022-11-12T09:37:10;8.13;90.09
67054;SHT31;53960;51.826;5.850;2022-11-12T09:39:36;8.25;89.60
67054;SHT31;53960;51.826;5.850;2022-11-12T09:42:32;8.36;89.21
67054;SHT31;53960;51.826;5.850;2022-11-12T09:45:02;8.44;89.19
67054;SHT31;53960;51.826;5.850;2022-11-12T09:47:41;8.53;88.83
67054;SHT31;53960;51.826;5.850;2022-11-12T09:50:25;8.65;88.38
67054;SHT31;53960;51.826;5.850;2022-11-12T09:52:56;8.68;89.29
67054;SHT31;53960;51.826;5.850;2022-11-12T09:55:30;8.68;89.16
67054;SHT31;53960;51.826;5.850;2022-11-12T09:57:57;8.71;89.20
67054;SHT31;53960;51.826;5.850;2022-11-12T10:00:22;8.84;89.06
67054;SHT31;53960;51.826;5.850;2022-11-12T10:03:00;8.95;88.61
67054;SHT31;53960;51.826;5.850;2022-11-12T10:05:33;9.12;88.47
67054;SHT31;53960;51.826;5.850;2022-11-12T10:10:52;9.32;88.15
67054;SHT31;53960;51.826;5.850;2022-11-12T10:14:01;9.48;87.69
67054;SHT31;53960;51.826;5.850;2022-11-12T10:24:47;9.85;86.92
67054;SHT31;53960;51.826;5.850;2022-11-12T10:27:25;9.95;87.16
67054;SHT31;53960;51.826;5.850;2022-11-12T10:29:57;10.05;86.61
67054;SHT31;53960;51.826;5.850;2022-11-12T10:32:24;10.19;86.32
67054;SHT31;53960;51.826;5.850;2022-11-12T10:34:49;10.29;86.21
67054;SHT31;53960;51.826;5.850;2022-11-12T10:37:22;10.42;85.51
67054;SHT31;53960;51.826;5.850;2022-11-12T10:39:49;10.55;85.10
67054;SHT31;53960;51.826;5.850;2022-11-12T10:42:18;10.60;85.06
67054;SHT31;53960;51.826;5.850;2022-11-12T10:44:44;10.67;85.32
67054;SHT31;53960;51.826;5.850;2022-11-12T10:47:40;10.77;84.50
67054;SHT31;53960;51.826;5.850;2022-11-12T10:53:02;11.06;83.68
67054;SHT31;53960;51.826;5.850;2022-11-12T10:55:31;11.13;83.76
67054;SHT31;53960;51.826;5.850;2022-11-12T11:00:35;11.24;83.91
67054;SHT31;53960;51.826;5.850;2022-11-12T11:03:04;11.27;83.56
67054;SHT31;53960;51.826;5.850;2022-11-12T11:05:35;11.35;83.38
67054;SHT31;53960;51.826;5.850;2022-11-12T11:08:02;11.36;83.75
67054;SHT31;53960;51.826;5.850;2022-11-12T11:10:31;11.44;83.40
67054;SHT31;53960;51.826;5.850;2022-11-12T11:16:01;11.65;81.61
67054;SHT31;53960;51.826;5.850;2022-11-12T11:18:28;11.68;81.52
67054;SHT31;53960;51.826;5.850;2022-11-12T11:21:02;11.68;81.30
67054;SHT31;53960;51.826;5.850;2022-11-12T11:23:46;11.71;80.68
67054;SHT31;53960;51.826;5.850;2022-11-12T11:26:30;11.78;79.82
67054;SHT31;53960;51.826;5.850;2022-11-12T11:29:29;11.83;79.62
67054;SHT31;53960;51.826;5.850;2022-11-12T11:37:31;12.23;77.25
67054;SHT31;53960;51.826;5.850;2022-11-12T11:43:15;12.44;79.83
67054;SHT31;53960;51.826;5.850;2022-11-12T11:46:01;12.62;80.79
67054;SHT31;53960;51.826;5.850;2022-11-12T11:48:54;12.74;80.81
67054;SHT31;53960;51.826;5.850;2022-11-12T11:51:47;12.72;80.82
67054;SHT31;53960;51.826;5.850;2022-11-12T11:56:43;12.88;79.95
67054;SHT31;53960;51.826;5.850;2022-11-12T11:59:48;13.03;79.16
67054;SHT31;53960;51.826;5.850;2022-11-12T12:05:39;13.18;78.92
67054;SHT31;53960;51.826;5.850;2022-11-12T12:08:13;13.23;78.98
67054;SHT31;53960;51.826;5.850;2022-11-12T12:13:38;13.26;78.78
67054;SHT31;53960;51.826;5.850;2022-11-12T12:18:51;13.19;78.40
67054;SHT31;53960;51.826;5.850;2022-11-12T12:21:19;13.20;78.71
67054;SHT31;53960;51.826;5.850;2022-11-12T12:23:52;13.20;77.49
67054;SHT31;53960;51.826;5.850;2022-11-12T12:26:23;13.29;79.01
67054;SHT31;53960;51.826;5.850;2022-11-12T12:29:32;13.40;78.31
67054;SHT31;53960;51.826;5.850;2022-11-12T12:34:45;13.29;80.24
67054;SHT31;53960;51.826;5.850;2022-11-12T12:37:20;13.32;80.38
67054;SHT31;53960;51.826;5.850;2022-11-12T12:39:53;13.38;80.52
67054;SHT31;53960;51.826;5.850;2022-11-12T12:42:30;13.36;80.99
67054;SHT31;53960;51.826;5.850;2022-11-12T12:45:22;13.39;80.83
67054;SHT31;53960;51.826;5.850;2022-11-12T12:47:51;13.38;80.47
67054;SHT31;53960;51.826;5.850;2022-11-12T12:50:18;13.39;80.58
67054;SHT31;53960;51.826;5.850;2022-11-12T12:53:00;13.40;80.15
67054;SHT31;53960;51.826;5.850;2022-11-12T12:55:40;13.43;78.51
67054;SHT31;53960;51.826;5.850;2022-11-12T12:58:26;13.46;79.21
67054;SHT31;53960;51.826;5.850;2022-11-12T13:01:04;13.47;78.80
67054;SHT31;53960;51.826;5.850;2022-11-12T13:06:14;13.47;78.53
67054;SHT31;53960;51.826;5.850;2022-11-12T13:08:40;13.46;78.99
67054;SHT31;53960;51.826;5.850;2022-11-12T13:11:06;13.46;78.51
67054;SHT31;53960;51.826;5.850;2022-11-12T13:13:34;13.53;78.05
67054;SHT31;53960;51.826;5.850;2022-11-12T13:16:01;13.53;77.96
67054;SHT31;53960;51.826;5.850;2022-11-12T13:21:17;13.60;77.93
67054;SHT31;53960;51.826;5.850;2022-11-12T13:23:54;13.61;78.44
67054;SHT31;53960;51.826;5.850;2022-11-12T13:26:46;13.61;77.81
67054;SHT31;53960;51.826;5.850;2022-11-12T13:35:26;13.64;77.34
67054;SHT31;53960;51.826;5.850;2022-11-12T13:37:56;13.71;76.93
67054;SHT31;53960;51.826;5.850;2022-11-12T13:43:02;13.78;77.23
67054;SHT31;53960;51.826;5.850;2022-11-12T13:45:28;13.84;76.88
67054;SHT31;53960;51.826;5.850;2022-11-12T13:47:54;13.87;77.79
67054;SHT31;53960;51.826;5.850;2022-11-12T13:50:22;13.84;77.88
67054;SHT31;53960;51.826;5.850;2022-11-12T13:52:48;13.80;76.92
67054;SHT31;53960;51.826;5.850;2022-11-12T13:55:19;13.74;77.53
67054;SHT31;53960;51.826;5.850;2022-11-12T13:57:55;13.71;78.12
67054;SHT31;53960;51.826;5.850;2022-11-12T14:00:24;13.70;78.17
67054;SHT31;53960;51.826;5.850;2022-11-12T14:02:59;13.61;77.86
67054;SHT31;53960;51.826;5.850;2022-11-12T14:05:27;13.59;77.61
67054;SHT31;53960;51.826;5.850;2022-11-12T14:13:54;13.50;76.36
67054;SHT31;53960;51.826;5.850;2022-11-12T14:19:17;13.42;76.53
67054;SHT31;53960;51.826;5.850;2022-11-12T14:22:10;13.35;76.05
67054;SHT31;53960;51.826;5.850;2022-11-12T14:24:36;13.22;76.50
67054;SHT31;53960;51.826;5.850;2022-11-12T14:27:02;13.18;76.31
67054;SHT31;53960;51.826;5.850;2022-11-12T14:29:27;13.18;75.79
67054;SHT31;53960;51.826;5.850;2022-11-12T14:32:02;13.15;76.10
67054;SHT31;53960;51.826;5.850;2022-11-12T14:34:32;13.01;76.73
67054;SHT31;53960;51.826;5.850;2022-11-12T14:36:58;12.95;76.89
67054;SHT31;53960;51.826;5.850;2022-11-12T14:39:26;12.95;76.92
67054;SHT31;53960;51.826;5.850;2022-11-12T14:41:52;12.92;77.81
67054;SHT31;53960;51.826;5.850;2022-11-12T14:44:21;12.92;77.97
67054;SHT31;53960;51.826;5.850;2022-11-12T14:46:55;12.99;77.85
67054;SHT31;53960;51.826;5.850;2022-11-12T14:49:37;12.92;78.69
67054;SHT31;53960;51.826;5.850;2022-11-12T14:52:16;12.89;78.51
67054;SHT31;53960;51.826;5.850;2022-11-12T14:54:55;12.87;78.90
67054;SHT31;53960;51.826;5.850;2022-11-12T14:57:25;12.84;78.64
67054;SHT31;53960;51.826;5.850;2022-11-12T14:59:50;12.74;79.50
67054;SHT31;53960;51.826;5.850;2022-11-12T15:02:21;12.64;80.11
67054;SHT31;53960;51.826;5.850;2022-11-12T15:04:58;12.51;80.82
67054;SHT31;53960;51.826;5.850;2022-11-12T15:07:26;12.44;81.15
67054;SHT31;53960;51.826;5.850;2022-11-12T15:09:52;12.34;81.82
67054;SHT31;53960;51.826;5.850;2022-11-12T15:12:24;12.26;82.70
67054;SHT31;53960;51.826;5.850;2022-11-12T15:14:51;12.23;82.82
67054;SHT31;53960;51.826;5.850;2022-11-12T15:20:00;12.10;83.13
67054;SHT31;53960;51.826;5.850;2022-11-12T15:22:25;12.03;83.55
67054;SHT31;53960;51.826;5.850;2022-11-12T15:24:52;11.99;83.68
67054;SHT31;53960;51.826;5.850;2022-11-12T15:27:34;11.89;84.12
67054;SHT31;53960;51.826;5.850;2022-11-12T15:30:31;11.81;84.32
67054;SHT31;53960;51.826;5.850;2022-11-12T15:33:17;11.71;84.79
67054;SHT31;53960;51.826;5.850;2022-11-12T15:35:54;11.58;85.04
67054;SHT31;53960;51.826;5.850;2022-11-12T15:38:28;11.48;85.44
67054;SHT31;53960;51.826;5.850;2022-11-12T15:40:59;11.39;85.98
67054;SHT31;53960;51.826;5.850;2022-11-12T15:43:27;11.36;86.21
67054;SHT31;53960;51.826;5.850;2022-11-12T15:45:54;11.25;86.22
67054;SHT31;53960;51.826;5.850;2022-11-12T15:48:20;11.21;86.61
67054;SHT31;53960;51.826;5.850;2022-11-12T15:50:46;11.13;86.63
67054;SHT31;53960;51.826;5.850;2022-11-12T15:53:12;11.08;86.78
67054;SHT31;53960;51.826;5.850;2022-11-12T15:55:38;11.03;86.86
67054;SHT31;53960;51.826;5.850;2022-11-12T15:58:05;10.92;86.99
67054;SHT31;53960;51.826;5.850;2022-11-12T16:00:34;10.87;87.31
67054;SHT31;53960;51.826;5.850;2022-11-12T16:03:10;10.77;87.61
67054;SHT31;53960;51.826;5.850;2022-11-12T16:05:36;10.73;87.90
67054;SHT31;53960;51.826;5.850;2022-11-12T16:08:01;10.64;87.86
67054;SHT31;53960;51.826;5.850;2022-11-12T16:10:27;10.59;88.22
67054;SHT31;53960;51.826;5.850;2022-11-12T16:12:56;10.55;88.47
67054;SHT31;53960;51.826;5.850;2022-11-12T16:15:22;10.48;88.58
67054;SHT31;53960;51.826;5.850;2022-11-12T16:17:50;10.41;88.96
67054;SHT31;53960;51.826;5.850;2022-11-12T16:20:21;10.35;89.44
67054;SHT31;53960;51.826;5.850;2022-11-12T16:22:47;10.25;89.47
67054;SHT31;53960;51.826;5.850;2022-11-12T16:25:12;10.16;89.49
67054;SHT31;53960;51.826;5.850;2022-11-12T16:27:38;10.12;89.52
67054;SHT31;53960;51.826;5.850;2022-11-12T16:30:25;10.05;89.85
67054;SHT31;53960;51.826;5.850;2022-11-12T16:32:51;9.99;89.92
67054;SHT31;53960;51.826;5.850;2022-11-12T16:35:17;9.95;90.09
67054;SHT31;53960;51.826;5.850;2022-11-12T16:37:43;9.88;90.11
67054;SHT31;53960;51.826;5.850;2022-11-12T16:40:15;9.80;90.22
67054;SHT31;53960;51.826;5.850;2022-11-12T16:42:41;9.74;90.34
67054;SHT31;53960;51.826;5.850;2022-11-12T16:45:13;9.73;90.76
67054;SHT31;53960;51.826;5.850;2022-11-12T16:47:53;9.70;90.61
67054;SHT31;53960;51.826;5.850;2022-11-12T16:50:22;9.58;90.65
67054;SHT31;53960;51.826;5.850;2022-11-12T16:52:48;9.54;90.73
67054;SHT31;53960;51.826;5.850;2022-11-12T16:55:14;9.48;91.01
67054;SHT31;53960;51.826;5.850;2022-11-12T16:57:39;9.42;91.03
67054;SHT31;53960;51.826;5.850;2022-11-12T17:00:08;9.37;91.21
67054;SHT31;53960;51.826;5.850;2022-11-12T17:02:34;9.33;91.17
67054;SHT31;53960;51.826;5.850;2022-11-12T17:05:01;9.27;91.29
67054;SHT31;53960;51.826;5.850;2022-11-12T17:07:27;9.22;91.27